sensor_id;sensor_type;location;lat;lon;timestamp;P1;durP1;ratioP1;P2;durP2;ratioP2
37097;SDS011;63608;49.572;12.348;2023-02-28T00:00:20;5.07;;;4.40;;
37097;SDS011;63608;49.572;12.348;2023-02-28T00:02:24;5.00;;;4.50;;
37097;SDS011;63608;49.572;12.348;2023-02-28T00:04:26;5.37;;;4.87;;
37097;SDS011;63608;49.572;12.348;2023-02-28T00:06:28;5.30;;;4.70;;
37097;SDS011;63608;49.572;12.348;2023-02-28T00:08:31;5.10;;;4.60;;
37097;SDS011;63608;49.572;12.348;2023-02-28T00:10:36;6.60;;;4.80;;
37097;SDS011;63608;49.572;12.348;2023-02-28T00:12:39;5.40;;;4.90;;
37097;SDS011;63608;49.572;12.348;2023-02-28T00:14:42;11.73;;;4.67;;
37097;SDS011;63608;49.572;12.348;2023-02-28T00:16:45;5.27;;;4.67;;
37097;SDS011;63608;49.572;12.348;2023-02-28T00:18:48;4.90;;;4.23;;
37097;SDS011;63608;49.572;12.348;2023-02-28T00:20:51;5.40;;;4.90;;
37097;SDS011;63608;49.572;12.348;2023-02-28T00:22:54;5.27;;;4.77;;
37097;SDS011;63608;49.572;12.348;2023-02-28T00:24:56;8.20;;;5.00;;
37097;SDS011;63608;49.572;12.348;2023-02-28T00:27:01;5.63;;;5.03;;
37097;SDS011;63608;49.572;12.348;2023-02-28T00:29:07;5.30;;;4.80;;
37097;SDS011;63608;49.572;12.348;2023-02-28T00:31:09;6.20;;;5.30;;
37097;SDS011;63608;49.572;12.348;2023-02-28T00:33:11;6.03;;;4.87;;
37097;SDS011;63608;49.572;12.348;2023-02-28T00:35:15;6.53;;;5.53;;
37097;SDS011;63608;49.572;12.348;2023-02-28T00:37:17;5.40;;;4.90;;
37097;SDS011;63608;49.572;12.348;2023-02-28T00:39:21;6.43;;;5.33;;
37097;SDS011;63608;49.572;12.348;2023-02-28T00:41:23;5.13;;;4.73;;
37097;SDS011;63608;49.572;12.348;2023-02-28T00:43:28;5.47;;;4.97;;
37097;SDS011;63608;49.572;12.348;2023-02-28T00:45:31;5.33;;;4.83;;
37097;SDS011;63608;49.572;12.348;2023-02-28T00:47:34;7.03;;;5.50;;
37097;SDS011;63608;49.572;12.348;2023-02-28T00:49:38;5.80;;;5.30;;
37097;SDS011;63608;49.572;12.348;2023-02-28T00:51:41;5.70;;;5.00;;
37097;SDS011;63608;49.572;12.348;2023-02-28T00:53:43;6.07;;;5.47;;
37097;SDS011;63608;49.572;12.348;2023-02-28T00:55:45;6.50;;;5.50;;
37097;SDS011;63608;49.572;12.348;2023-02-28T00:57:48;7.47;;;5.70;;
37097;SDS011;63608;49.572;12.348;2023-02-28T00:59:52;5.60;;;5.10;;
37097;SDS011;63608;49.572;12.348;2023-02-28T01:01:56;6.10;;;5.50;;
37097;SDS011;63608;49.572;12.348;2023-02-28T01:03:58;6.60;;;5.93;;
37097;SDS011;63608;49.572;12.348;2023-02-28T01:06:00;6.10;;;5.33;;
37097;SDS011;63608;49.572;12.348;2023-02-28T01:08:03;5.97;;;5.40;;
37097;SDS011;63608;49.572;12.348;2023-02-28T01:10:06;6.17;;;5.57;;
37097;SDS011;63608;49.572;12.348;2023-02-28T01:12:12;6.10;;;5.57;;
37097;SDS011;63608;49.572;12.348;2023-02-28T01:14:16;6.87;;;5.30;;
37097;SDS011;63608;49.572;12.348;2023-02-28T01:16:23;6.20;;;5.60;;
37097;SDS011;63608;49.572;12.348;2023-02-28T01:18:40;8.63;;;5.80;;
37097;SDS011;63608;49.572;12.348;2023-02-28T01:20:42;7.13;;;6.10;;
37097;SDS011;63608;49.572;12.348;2023-02-28T01:22:46;6.13;;;5.53;;
37097;SDS011;63608;49.572;12.348;2023-02-28T01:24:51;6.43;;;5.80;;
37097;SDS011;63608;49.572;12.348;2023-02-28T01:26:55;6.40;;;5.80;;
37097;SDS011;63608;49.572;12.348;2023-02-28T01:28:57;8.17;;;6.10;;
37097;SDS011;63608;49.572;12.348;2023-02-28T01:31:00;8.67;;;7.27;;
37097;SDS011;63608;49.572;12.348;2023-02-28T01:33:23;7.87;;;6.60;;
37097;SDS011;63608;49.572;12.348;2023-02-28T01:35:26;6.33;;;5.83;;
37097;SDS011;63608;49.572;12.348;2023-02-28T01:37:28;7.90;;;6.50;;
37097;SDS011;63608;49.572;12.348;2023-02-28T01:39:40;7.70;;;6.90;;
37097;SDS011;63608;49.572;12.348;2023-02-28T01:42:08;7.67;;;6.80;;
37097;SDS011;63608;49.572;12.348;2023-02-28T01:47:05;9.90;;;8.07;;
37097;SDS011;63608;49.572;12.348;2023-02-28T01:49:11;9.00;;;7.43;;
37097;SDS011;63608;49.572;12.348;2023-02-28T01:51:17;9.53;;;7.80;;
37097;SDS011;63608;49.572;12.348;2023-02-28T01:53:23;9.67;;;7.93;;
37097;SDS011;63608;49.572;12.348;2023-02-28T01:55:28;8.53;;;7.63;;
37097;SDS011;63608;49.572;12.348;2023-02-28T01:57:32;8.97;;;7.50;;
37097;SDS011;63608;49.572;12.348;2023-02-28T01:59:38;9.30;;;7.83;;
37097;SDS011;63608;49.572;12.348;2023-02-28T02:01:47;10.70;;;8.63;;
37097;SDS011;63608;49.572;12.348;2023-02-28T02:03:57;8.57;;;7.57;;
37097;SDS011;63608;49.572;12.348;2023-02-28T02:06:03;9.40;;;7.90;;
37097;SDS011;63608;49.572;12.348;2023-02-28T02:08:06;9.40;;;7.70;;
37097;SDS011;63608;49.572;12.348;2023-02-28T02:10:24;11.20;;;7.73;;
37097;SDS011;63608;49.572;12.348;2023-02-28T02:12:35;14.20;;;8.17;;
37097;SDS011;63608;49.572;12.348;2023-02-28T02:14:55;8.90;;;7.93;;
37097;SDS011;63608;49.572;12.348;2023-02-28T02:17:05;10.33;;;8.20;;
37097;SDS011;63608;49.572;12.348;2023-02-28T02:19:15;12.20;;;9.10;;
37097;SDS011;63608;49.572;12.348;2023-02-28T02:27:11;9.33;;;8.30;;
37097;SDS011;63608;49.572;12.348;2023-02-28T02:29:33;9.83;;;7.80;;
37097;SDS011;63608;49.572;12.348;2023-02-28T02:31:57;11.43;;;8.20;;
37097;SDS011;63608;49.572;12.348;2023-02-28T02:36:45;10.70;;;8.23;;
37097;SDS011;63608;49.572;12.348;2023-02-28T02:38:53;10.47;;;8.87;;
37097;SDS011;63608;49.572;12.348;2023-02-28T02:41:01;10.67;;;8.43;;
37097;SDS011;63608;49.572;12.348;2023-02-28T02:43:13;11.17;;;9.03;;
37097;SDS011;63608;49.572;12.348;2023-02-28T02:45:26;9.60;;;8.40;;
37097;SDS011;63608;49.572;12.348;2023-02-28T02:47:36;11.13;;;8.60;;
37097;SDS011;63608;49.572;12.348;2023-02-28T02:49:40;9.30;;;8.00;;
37097;SDS011;63608;49.572;12.348;2023-02-28T02:51:54;9.90;;;8.30;;
37097;SDS011;63608;49.572;12.348;2023-02-28T02:54:00;10.00;;;8.77;;
37097;SDS011;63608;49.572;12.348;2023-02-28T02:56:18;10.00;;;8.60;;
37097;SDS011;63608;49.572;12.348;2023-02-28T02:58:24;12.90;;;9.23;;
37097;SDS011;63608;49.572;12.348;2023-02-28T03:00:31;10.43;;;9.03;;
37097;SDS011;63608;49.572;12.348;2023-02-28T03:02:36;10.30;;;8.97;;
37097;SDS011;63608;49.572;12.348;2023-02-28T03:04:40;12.40;;;9.23;;
37097;SDS011;63608;49.572;12.348;2023-02-28T03:06:50;11.07;;;8.40;;
37097;SDS011;63608;49.572;12.348;2023-02-28T03:08:58;10.83;;;8.60;;
37097;SDS011;63608;49.572;12.348;2023-02-28T03:11:03;12.13;;;8.90;;
37097;SDS011;63608;49.572;12.348;2023-02-28T03:13:41;11.80;;;8.67;;
37097;SDS011;63608;49.572;12.348;2023-02-28T03:16:11;9.20;;;7.90;;
37097;SDS011;63608;49.572;12.348;2023-02-28T03:18:36;10.60;;;9.17;;
37097;SDS011;63608;49.572;12.348;2023-02-28T03:20:47;11.50;;;8.60;;
37097;SDS011;63608;49.572;12.348;2023-02-28T03:23:01;11.13;;;8.63;;
37097;SDS011;63608;49.572;12.348;2023-02-28T03:25:12;10.37;;;8.47;;
37097;SDS011;63608;49.572;12.348;2023-02-28T03:27:21;10.40;;;8.77;;
37097;SDS011;63608;49.572;12.348;2023-02-28T03:29:27;10.63;;;8.47;;
37097;SDS011;63608;49.572;12.348;2023-02-28T03:31:35;9.77;;;8.50;;
37097;SDS011;63608;49.572;12.348;2023-02-28T03:33:40;11.70;;;8.63;;
37097;SDS011;63608;49.572;12.348;2023-02-28T03:35:47;11.90;;;8.10;;
37097;SDS011;63608;49.572;12.348;2023-02-28T03:37:53;9.57;;;8.20;;
37097;SDS011;63608;49.572;12.348;2023-02-28T03:40:00;12.50;;;8.33;;
37097;SDS011;63608;49.572;12.348;2023-02-28T03:42:07;11.97;;;8.90;;
37097;SDS011;63608;49.572;12.348;2023-02-28T03:44:21;11.43;;;9.13;;
37097;SDS011;63608;49.572;12.348;2023-02-28T03:46:28;9.80;;;8.00;;
37097;SDS011;63608;49.572;12.348;2023-02-28T03:48:36;9.93;;;8.30;;
37097;SDS011;63608;49.572;12.348;2023-02-28T03:50:42;10.03;;;8.50;;
37097;SDS011;63608;49.572;12.348;2023-02-28T03:52:52;11.10;;;8.20;;
37097;SDS011;63608;49.572;12.348;2023-02-28T03:55:03;9.70;;;8.67;;
37097;SDS011;63608;49.572;12.348;2023-02-28T03:57:10;10.07;;;7.87;;
37097;SDS011;63608;49.572;12.348;2023-02-28T03:59:18;9.00;;;8.10;;
37097;SDS011;63608;49.572;12.348;2023-02-28T04:01:23;8.90;;;8.00;;
37097;SDS011;63608;49.572;12.348;2023-02-28T04:03:27;8.60;;;7.43;;
37097;SDS011;63608;49.572;12.348;2023-02-28T04:05:30;11.30;;;7.90;;
37097;SDS011;63608;49.572;12.348;2023-02-28T04:07:47;10.20;;;8.20;;
37097;SDS011;63608;49.572;12.348;2023-02-28T04:09:49;9.23;;;7.53;;
37097;SDS011;63608;49.572;12.348;2023-02-28T04:11:53;10.80;;;7.70;;
37097;SDS011;63608;49.572;12.348;2023-02-28T04:13:57;9.20;;;8.20;;
37097;SDS011;63608;49.572;12.348;2023-02-28T04:16:08;10.90;;;8.10;;
37097;SDS011;63608;49.572;12.348;2023-02-28T04:18:12;9.23;;;7.70;;
37097;SDS011;63608;49.572;12.348;2023-02-28T04:20:15;10.40;;;7.87;;
37097;SDS011;63608;49.572;12.348;2023-02-28T04:22:19;9.10;;;7.77;;
37097;SDS011;63608;49.572;12.348;2023-02-28T04:24:29;10.10;;;8.17;;
37097;SDS011;63608;49.572;12.348;2023-02-28T04:26:33;8.57;;;7.43;;
37097;SDS011;63608;49.572;12.348;2023-02-28T04:28:41;9.70;;;8.40;;
37097;SDS011;63608;49.572;12.348;2023-02-28T04:30:47;10.83;;;8.23;;
37097;SDS011;63608;49.572;12.348;2023-02-28T04:32:56;10.93;;;8.20;;
37097;SDS011;63608;49.572;12.348;2023-02-28T04:35:30;9.17;;;7.47;;
37097;SDS011;63608;49.572;12.348;2023-02-28T04:37:33;10.87;;;7.90;;
37097;SDS011;63608;49.572;12.348;2023-02-28T04:39:37;9.20;;;7.67;;
37097;SDS011;63608;49.572;12.348;2023-02-28T04:41:39;9.17;;;7.67;;
37097;SDS011;63608;49.572;12.348;2023-02-28T04:43:46;9.97;;;7.90;;
37097;SDS011;63608;49.572;12.348;2023-02-28T04:45:49;9.57;;;7.90;;
37097;SDS011;63608;49.572;12.348;2023-02-28T04:47:51;11.23;;;8.17;;
37097;SDS011;63608;49.572;12.348;2023-02-28T04:50:11;11.33;;;8.73;;
37097;SDS011;63608;49.572;12.348;2023-02-28T04:52:16;11.90;;;8.87;;
37097;SDS011;63608;49.572;12.348;2023-02-28T04:54:18;9.70;;;8.13;;
37097;SDS011;63608;49.572;12.348;2023-02-28T04:56:21;12.20;;;8.60;;
37097;SDS011;63608;49.572;12.348;2023-02-28T04:58:24;11.47;;;8.80;;
37097;SDS011;63608;49.572;12.348;2023-02-28T05:00:29;9.70;;;8.17;;
37097;SDS011;63608;49.572;12.348;2023-02-28T05:02:35;13.20;;;8.60;;
37097;SDS011;63608;49.572;12.348;2023-02-28T05:04:38;9.40;;;7.97;;
37097;SDS011;63608;49.572;12.348;2023-02-28T05:06:42;11.77;;;8.80;;
37097;SDS011;63608;49.572;12.348;2023-02-28T05:08:46;10.93;;;8.57;;
37097;SDS011;63608;49.572;12.348;2023-02-28T05:10:48;10.57;;;8.10;;
37097;SDS011;63608;49.572;12.348;2023-02-28T05:12:50;11.87;;;9.60;;
37097;SDS011;63608;49.572;12.348;2023-02-28T05:14:54;11.37;;;8.40;;
37097;SDS011;63608;49.572;12.348;2023-02-28T05:16:58;16.70;;;8.57;;
37097;SDS011;63608;49.572;12.348;2023-02-28T05:19:03;11.10;;;8.87;;
37097;SDS011;63608;49.572;12.348;2023-02-28T05:21:05;10.40;;;8.83;;
37097;SDS011;63608;49.572;12.348;2023-02-28T05:23:14;10.80;;;8.03;;
37097;SDS011;63608;49.572;12.348;2023-02-28T05:25:18;12.03;;;8.40;;
37097;SDS011;63608;49.572;12.348;2023-02-28T05:27:22;11.57;;;8.20;;
37097;SDS011;63608;49.572;12.348;2023-02-28T05:29:25;11.60;;;8.73;;
37097;SDS011;63608;49.572;12.348;2023-02-28T05:31:30;9.43;;;8.40;;
37097;SDS011;63608;49.572;12.348;2023-02-28T05:33:34;12.20;;;8.97;;
37097;SDS011;63608;49.572;12.348;2023-02-28T05:35:36;12.47;;;9.23;;
37097;SDS011;63608;49.572;12.348;2023-02-28T05:37:39;10.53;;;8.23;;
37097;SDS011;63608;49.572;12.348;2023-02-28T05:39:45;11.50;;;8.47;;
37097;SDS011;63608;49.572;12.348;2023-02-28T05:41:48;9.60;;;8.20;;
37097;SDS011;63608;49.572;12.348;2023-02-28T05:43:54;10.97;;;8.80;;
37097;SDS011;63608;49.572;12.348;2023-02-28T05:45:57;11.10;;;9.23;;
37097;SDS011;63608;49.572;12.348;2023-02-28T05:48:00;10.70;;;9.20;;
37097;SDS011;63608;49.572;12.348;2023-02-28T05:50:09;12.53;;;9.23;;
37097;SDS011;63608;49.572;12.348;2023-02-28T05:52:13;10.90;;;8.17;;
37097;SDS011;63608;49.572;12.348;2023-02-28T05:54:15;10.10;;;8.53;;
37097;SDS011;63608;49.572;12.348;2023-02-28T05:56:19;12.93;;;9.27;;
37097;SDS011;63608;49.572;12.348;2023-02-28T05:58:26;9.23;;;8.30;;
37097;SDS011;63608;49.572;12.348;2023-02-28T06:00:30;12.50;;;8.87;;
37097;SDS011;63608;49.572;12.348;2023-02-28T06:02:33;10.77;;;9.00;;
37097;SDS011;63608;49.572;12.348;2023-02-28T06:04:35;15.97;;;9.70;;
37097;SDS011;63608;49.572;12.348;2023-02-28T06:06:39;14.83;;;11.47;;
37097;SDS011;63608;49.572;12.348;2023-02-28T06:08:41;12.90;;;10.20;;
37097;SDS011;63608;49.572;12.348;2023-02-28T06:10:44;11.97;;;8.80;;
37097;SDS011;63608;49.572;12.348;2023-02-28T06:12:47;12.50;;;9.57;;
37097;SDS011;63608;49.572;12.348;2023-02-28T06:14:49;14.80;;;10.03;;
37097;SDS011;63608;49.572;12.348;2023-02-28T06:16:51;11.37;;;9.13;;
37097;SDS011;63608;49.572;12.348;2023-02-28T06:18:54;11.90;;;9.53;;
37097;SDS011;63608;49.572;12.348;2023-02-28T06:20:58;13.77;;;11.20;;
37097;SDS011;63608;49.572;12.348;2023-02-28T06:23:02;12.20;;;9.90;;
37097;SDS011;63608;49.572;12.348;2023-02-28T06:25:06;11.73;;;10.10;;
37097;SDS011;63608;49.572;12.348;2023-02-28T06:27:10;11.73;;;9.20;;
37097;SDS011;63608;49.572;12.348;2023-02-28T06:29:13;13.83;;;9.27;;
37097;SDS011;63608;49.572;12.348;2023-02-28T06:31:25;11.93;;;9.00;;
37097;SDS011;63608;49.572;12.348;2023-02-28T06:33:29;11.23;;;9.17;;
37097;SDS011;63608;49.572;12.348;2023-02-28T06:35:31;11.53;;;9.60;;
37097;SDS011;63608;49.572;12.348;2023-02-28T06:37:33;10.93;;;9.30;;
37097;SDS011;63608;49.572;12.348;2023-02-28T06:39:45;12.07;;;9.47;;
37097;SDS011;63608;49.572;12.348;2023-02-28T06:41:51;11.87;;;9.27;;
37097;SDS011;63608;49.572;12.348;2023-02-28T06:43:53;12.83;;;9.70;;
37097;SDS011;63608;49.572;12.348;2023-02-28T06:45:56;13.33;;;9.80;;
37097;SDS011;63608;49.572;12.348;2023-02-28T06:47:59;12.77;;;9.67;;
37097;SDS011;63608;49.572;12.348;2023-02-28T06:50:03;12.07;;;9.60;;
37097;SDS011;63608;49.572;12.348;2023-02-28T06:52:06;12.30;;;8.90;;
37097;SDS011;63608;49.572;12.348;2023-02-28T06:54:10;10.83;;;9.20;;
37097;SDS011;63608;49.572;12.348;2023-02-28T06:56:16;12.80;;;9.60;;
37097;SDS011;63608;49.572;12.348;2023-02-28T06:58:20;12.37;;;9.60;;
37097;SDS011;63608;49.572;12.348;2023-02-28T07:00:23;12.97;;;9.10;;
37097;SDS011;63608;49.572;12.348;2023-02-28T07:02:27;13.43;;;9.40;;
37097;SDS011;63608;49.572;12.348;2023-02-28T07:04:30;11.97;;;9.40;;
37097;SDS011;63608;49.572;12.348;2023-02-28T07:06:40;16.60;;;9.60;;
37097;SDS011;63608;49.572;12.348;2023-02-28T07:08:43;13.10;;;9.77;;
37097;SDS011;63608;49.572;12.348;2023-02-28T07:10:46;13.90;;;10.57;;
37097;SDS011;63608;49.572;12.348;2023-02-28T07:12:50;11.73;;;9.23;;
37097;SDS011;63608;49.572;12.348;2023-02-28T07:14:53;11.87;;;9.10;;
37097;SDS011;63608;49.572;12.348;2023-02-28T07:16:56;9.80;;;8.37;;
37097;SDS011;63608;49.572;12.348;2023-02-28T07:18:59;14.90;;;10.37;;
37097;SDS011;63608;49.572;12.348;2023-02-28T07:21:01;13.13;;;9.60;;
37097;SDS011;63608;49.572;12.348;2023-02-28T07:23:04;11.83;;;9.57;;
37097;SDS011;63608;49.572;12.348;2023-02-28T07:25:07;10.17;;;8.67;;
37097;SDS011;63608;49.572;12.348;2023-02-28T07:27:11;12.20;;;8.80;;
37097;SDS011;63608;49.572;12.348;2023-02-28T07:29:28;13.20;;;9.30;;
37097;SDS011;63608;49.572;12.348;2023-02-28T07:31:30;9.93;;;8.70;;
37097;SDS011;63608;49.572;12.348;2023-02-28T07:33:33;13.37;;;10.20;;
37097;SDS011;63608;49.572;12.348;2023-02-28T07:35:35;11.70;;;9.13;;
37097;SDS011;63608;49.572;12.348;2023-02-28T07:37:38;10.80;;;8.63;;
37097;SDS011;63608;49.572;12.348;2023-02-28T07:39:41;10.77;;;8.43;;
37097;SDS011;63608;49.572;12.348;2023-02-28T07:41:46;10.70;;;8.77;;
37097;SDS011;63608;49.572;12.348;2023-02-28T07:43:52;12.43;;;9.73;;
37097;SDS011;63608;49.572;12.348;2023-02-28T07:45:58;10.67;;;9.00;;
37097;SDS011;63608;49.572;12.348;2023-02-28T07:48:05;10.80;;;8.77;;
37097;SDS011;63608;49.572;12.348;2023-02-28T07:50:11;8.90;;;8.00;;
37097;SDS011;63608;49.572;12.348;2023-02-28T07:52:14;12.07;;;9.27;;
37097;SDS011;63608;49.572;12.348;2023-02-28T07:54:16;9.93;;;7.90;;
37097;SDS011;63608;49.572;12.348;2023-02-28T07:56:21;10.73;;;8.47;;
37097;SDS011;63608;49.572;12.348;2023-02-28T07:58:24;9.10;;;8.00;;
37097;SDS011;63608;49.572;12.348;2023-02-28T08:00:27;9.90;;;8.30;;
37097;SDS011;63608;49.572;12.348;2023-02-28T08:02:34;10.90;;;7.47;;
37097;SDS011;63608;49.572;12.348;2023-02-28T08:04:39;9.17;;;7.30;;
37097;SDS011;63608;49.572;12.348;2023-02-28T08:06:42;9.20;;;7.60;;
37097;SDS011;63608;49.572;12.348;2023-02-28T08:08:46;8.67;;;7.50;;
37097;SDS011;63608;49.572;12.348;2023-02-28T08:10:48;10.60;;;7.70;;
37097;SDS011;63608;49.572;12.348;2023-02-28T08:12:50;9.67;;;8.03;;
37097;SDS011;63608;49.572;12.348;2023-02-28T08:14:53;9.17;;;8.20;;
37097;SDS011;63608;49.572;12.348;2023-02-28T08:17:00;10.73;;;8.17;;
37097;SDS011;63608;49.572;12.348;2023-02-28T08:19:10;9.63;;;7.43;;
37097;SDS011;63608;49.572;12.348;2023-02-28T08:21:12;10.03;;;8.10;;
37097;SDS011;63608;49.572;12.348;2023-02-28T08:23:14;12.53;;;9.23;;
37097;SDS011;63608;49.572;12.348;2023-02-28T08:25:19;10.37;;;7.73;;
37097;SDS011;63608;49.572;12.348;2023-02-28T08:27:22;12.10;;;8.90;;
37097;SDS011;63608;49.572;12.348;2023-02-28T08:29:25;11.40;;;8.77;;
37097;SDS011;63608;49.572;12.348;2023-02-28T08:31:35;9.07;;;8.03;;
37097;SDS011;63608;49.572;12.348;2023-02-28T08:33:38;9.70;;;7.70;;
37097;SDS011;63608;49.572;12.348;2023-02-28T08:35:43;8.93;;;7.90;;
37097;SDS011;63608;49.572;12.348;2023-02-28T08:37:47;9.30;;;7.50;;
37097;SDS011;63608;49.572;12.348;2023-02-28T08:39:49;10.57;;;8.03;;
37097;SDS011;63608;49.572;12.348;2023-02-28T08:41:55;8.80;;;7.60;;
37097;SDS011;63608;49.572;12.348;2023-02-28T08:43:57;9.63;;;7.97;;
37097;SDS011;63608;49.572;12.348;2023-02-28T08:46:00;9.40;;;7.67;;
37097;SDS011;63608;49.572;12.348;2023-02-28T08:48:02;9.57;;;7.50;;
37097;SDS011;63608;49.572;12.348;2023-02-28T08:50:06;9.20;;;7.27;;
37097;SDS011;63608;49.572;12.348;2023-02-28T08:52:11;11.57;;;7.77;;
37097;SDS011;63608;49.572;12.348;2023-02-28T08:54:13;8.43;;;7.10;;
37097;SDS011;63608;49.572;12.348;2023-02-28T08:56:20;10.33;;;7.30;;
37097;SDS011;63608;49.572;12.348;2023-02-28T08:58:23;8.73;;;6.80;;
37097;SDS011;63608;49.572;12.348;2023-02-28T09:00:25;9.83;;;7.17;;
37097;SDS011;63608;49.572;12.348;2023-02-28T09:02:27;8.20;;;6.80;;
37097;SDS011;63608;49.572;12.348;2023-02-28T09:04:32;10.20;;;7.17;;
37097;SDS011;63608;49.572;12.348;2023-02-28T09:06:35;9.27;;;7.50;;
37097;SDS011;63608;49.572;12.348;2023-02-28T09:08:42;9.47;;;7.60;;
37097;SDS011;63608;49.572;12.348;2023-02-28T09:10:44;8.70;;;7.20;;
37097;SDS011;63608;49.572;12.348;2023-02-28T09:12:47;9.50;;;7.00;;
37097;SDS011;63608;49.572;12.348;2023-02-28T09:14:50;17.20;;;7.33;;
37097;SDS011;63608;49.572;12.348;2023-02-28T09:17:02;8.60;;;6.53;;
37097;SDS011;63608;49.572;12.348;2023-02-28T09:19:05;8.73;;;6.57;;
37097;SDS011;63608;49.572;12.348;2023-02-28T09:21:11;7.90;;;7.10;;
37097;SDS011;63608;49.572;12.348;2023-02-28T09:23:17;7.17;;;6.07;;
37097;SDS011;63608;49.572;12.348;2023-02-28T09:25:23;8.87;;;6.80;;
37097;SDS011;63608;49.572;12.348;2023-02-28T09:27:29;8.70;;;7.53;;
37097;SDS011;63608;49.572;12.348;2023-02-28T09:29:32;7.80;;;7.03;;
37097;SDS011;63608;49.572;12.348;2023-02-28T09:31:35;8.30;;;7.20;;
37097;SDS011;63608;49.572;12.348;2023-02-28T09:33:40;9.10;;;7.40;;
37097;SDS011;63608;49.572;12.348;2023-02-28T09:35:42;8.60;;;7.70;;
37097;SDS011;63608;49.572;12.348;2023-02-28T09:37:47;7.77;;;6.53;;
37097;SDS011;63608;49.572;12.348;2023-02-28T09:39:52;10.80;;;7.73;;
37097;SDS011;63608;49.572;12.348;2023-02-28T09:41:57;8.47;;;7.30;;
37097;SDS011;63608;49.572;12.348;2023-02-28T09:44:00;8.47;;;7.40;;
37097;SDS011;63608;49.572;12.348;2023-02-28T09:46:05;8.90;;;7.70;;
37097;SDS011;63608;49.572;12.348;2023-02-28T09:48:13;9.30;;;7.27;;
37097;SDS011;63608;49.572;12.348;2023-02-28T09:50:22;9.83;;;7.70;;
37097;SDS011;63608;49.572;12.348;2023-02-28T09:52:34;8.13;;;7.33;;
37097;SDS011;63608;49.572;12.348;2023-02-28T09:54:36;9.63;;;7.40;;
37097;SDS011;63608;49.572;12.348;2023-02-28T09:56:42;9.33;;;7.40;;
37097;SDS011;63608;49.572;12.348;2023-02-28T09:58:51;9.40;;;7.60;;
37097;SDS011;63608;49.572;12.348;2023-02-28T10:00:57;10.70;;;7.70;;
37097;SDS011;63608;49.572;12.348;2023-02-28T10:03:18;20.33;;;11.13;;
37097;SDS011;63608;49.572;12.348;2023-02-28T10:05:27;14.77;;;8.97;;
37097;SDS011;63608;49.572;12.348;2023-02-28T10:07:39;13.83;;;9.50;;
37097;SDS011;63608;49.572;12.348;2023-02-28T10:09:51;9.57;;;8.53;;
37097;SDS011;63608;49.572;12.348;2023-02-28T10:11:56;10.00;;;7.83;;
37097;SDS011;63608;49.572;12.348;2023-02-28T10:14:04;10.17;;;8.10;;
37097;SDS011;63608;49.572;12.348;2023-02-28T10:16:13;9.97;;;8.40;;
37097;SDS011;63608;49.572;12.348;2023-02-28T10:18:19;11.97;;;8.97;;
37097;SDS011;63608;49.572;12.348;2023-02-28T10:20:23;9.67;;;8.17;;
37097;SDS011;63608;49.572;12.348;2023-02-28T10:22:34;10.00;;;8.50;;
37097;SDS011;63608;49.572;12.348;2023-02-28T10:24:40;11.30;;;8.67;;
37097;SDS011;63608;49.572;12.348;2023-02-28T10:26:44;11.00;;;8.00;;
37097;SDS011;63608;49.572;12.348;2023-02-28T10:28:47;9.40;;;8.40;;
37097;SDS011;63608;49.572;12.348;2023-02-28T10:30:52;11.37;;;8.80;;
37097;SDS011;63608;49.572;12.348;2023-02-28T10:33:00;14.43;;;9.03;;
37097;SDS011;63608;49.572;12.348;2023-02-28T10:35:09;10.10;;;9.00;;
37097;SDS011;63608;49.572;12.348;2023-02-28T10:37:16;11.03;;;8.30;;
37097;SDS011;63608;49.572;12.348;2023-02-28T10:39:36;11.47;;;8.90;;
37097;SDS011;63608;49.572;12.348;2023-02-28T10:41:45;11.37;;;9.20;;
37097;SDS011;63608;49.572;12.348;2023-02-28T10:43:47;12.47;;;8.70;;
37097;SDS011;63608;49.572;12.348;2023-02-28T10:45:55;19.53;;;9.60;;
37097;SDS011;63608;49.572;12.348;2023-02-28T10:48:00;11.97;;;9.20;;
37097;SDS011;63608;49.572;12.348;2023-02-28T10:50:04;11.23;;;9.03;;
37097;SDS011;63608;49.572;12.348;2023-02-28T10:52:08;13.60;;;8.83;;
37097;SDS011;63608;49.572;12.348;2023-02-28T10:54:15;12.53;;;9.77;;
37097;SDS011;63608;49.572;12.348;2023-02-28T10:56:19;12.40;;;8.60;;
37097;SDS011;63608;49.572;12.348;2023-02-28T10:58:23;12.13;;;8.80;;
37097;SDS011;63608;49.572;12.348;2023-02-28T11:00:31;12.33;;;9.60;;
37097;SDS011;63608;49.572;12.348;2023-02-28T11:02:37;11.80;;;9.07;;
37097;SDS011;63608;49.572;12.348;2023-02-28T11:04:42;12.90;;;10.30;;
37097;SDS011;63608;49.572;12.348;2023-02-28T11:06:46;12.30;;;9.73;;
37097;SDS011;63608;49.572;12.348;2023-02-28T11:09:05;12.17;;;9.40;;
37097;SDS011;63608;49.572;12.348;2023-02-28T11:11:20;12.13;;;10.00;;
37097;SDS011;63608;49.572;12.348;2023-02-28T11:13:26;11.10;;;9.20;;
37097;SDS011;63608;49.572;12.348;2023-02-28T11:15:32;12.87;;;9.50;;
37097;SDS011;63608;49.572;12.348;2023-02-28T11:17:37;11.47;;;9.77;;
37097;SDS011;63608;49.572;12.348;2023-02-28T11:19:44;14.23;;;10.17;;
37097;SDS011;63608;49.572;12.348;2023-02-28T11:21:48;15.40;;;10.27;;
37097;SDS011;63608;49.572;12.348;2023-02-28T11:23:56;12.97;;;9.10;;
37097;SDS011;63608;49.572;12.348;2023-02-28T11:26:03;14.73;;;9.23;;
37097;SDS011;63608;49.572;12.348;2023-02-28T11:28:22;11.10;;;9.20;;
37097;SDS011;63608;49.572;12.348;2023-02-28T11:30:29;11.90;;;8.50;;
37097;SDS011;63608;49.572;12.348;2023-02-28T11:32:37;9.73;;;8.70;;
37097;SDS011;63608;49.572;12.348;2023-02-28T11:35:00;12.90;;;10.00;;
37097;SDS011;63608;49.572;12.348;2023-02-28T11:37:09;10.03;;;8.87;;
37097;SDS011;63608;49.572;12.348;2023-02-28T11:39:14;11.43;;;9.20;;
37097;SDS011;63608;49.572;12.348;2023-02-28T11:41:32;11.40;;;9.40;;
37097;SDS011;63608;49.572;12.348;2023-02-28T11:43:48;10.60;;;9.20;;
37097;SDS011;63608;49.572;12.348;2023-02-28T11:46:11;11.00;;;9.10;;
37097;SDS011;63608;49.572;12.348;2023-02-28T11:48:24;10.47;;;9.33;;
37097;SDS011;63608;49.572;12.348;2023-02-28T11:50:39;14.07;;;10.00;;
37097;SDS011;63608;49.572;12.348;2023-02-28T11:52:48;15.20;;;11.43;;
37097;SDS011;63608;49.572;12.348;2023-02-28T11:55:12;13.40;;;10.50;;
37097;SDS011;63608;49.572;12.348;2023-02-28T11:57:26;11.13;;;9.93;;
37097;SDS011;63608;49.572;12.348;2023-02-28T11:59:50;11.33;;;9.37;;
37097;SDS011;63608;49.572;12.348;2023-02-28T12:02:06;13.10;;;9.50;;
37097;SDS011;63608;49.572;12.348;2023-02-28T12:04:41;12.47;;;9.63;;
37097;SDS011;63608;49.572;12.348;2023-02-28T12:06:57;12.23;;;9.83;;
37097;SDS011;63608;49.572;12.348;2023-02-28T12:09:04;15.37;;;11.17;;
37097;SDS011;63608;49.572;12.348;2023-02-28T12:11:26;13.40;;;10.70;;
37097;SDS011;63608;49.572;12.348;2023-02-28T12:13:36;11.37;;;9.57;;
37097;SDS011;63608;49.572;12.348;2023-02-28T12:18:35;12.63;;;9.13;;
37097;SDS011;63608;49.572;12.348;2023-02-28T12:20:48;12.47;;;9.33;;
37097;SDS011;63608;49.572;12.348;2023-02-28T12:22:56;10.30;;;8.93;;
37097;SDS011;63608;49.572;12.348;2023-02-28T12:27:38;11.70;;;9.37;;
37097;SDS011;63608;49.572;12.348;2023-02-28T12:29:43;10.03;;;8.10;;
37097;SDS011;63608;49.572;12.348;2023-02-28T12:31:49;12.80;;;9.10;;
37097;SDS011;63608;49.572;12.348;2023-02-28T12:33:55;9.63;;;8.50;;
37097;SDS011;63608;49.572;12.348;2023-02-28T12:36:04;10.80;;;8.70;;
37097;SDS011;63608;49.572;12.348;2023-02-28T12:38:10;11.60;;;9.77;;
37097;SDS011;63608;49.572;12.348;2023-02-28T12:40:15;13.10;;;10.37;;